createdAt,value
2019-05-02T00:04:55.850Z,9.30
2019-05-02T00:10:02.442Z,9.20
2019-05-02T00:15:09.661Z,9.30
2019-05-02T00:20:21.182Z,9.20
2019-05-02T00:25:28.724Z,9.20
2019-05-02T00:30:36.205Z,9.10
2019-05-02T00:35:45.988Z,9.10
2019-05-02T00:40:57.431Z,9.10
2019-05-02T00:46:02.089Z,9.10
2019-05-02T00:51:09.260Z,9.00
2019-05-02T00:56:16.308Z,8.90
2019-05-02T01:01:34.026Z,9.00
2019-05-02T01:06:44.630Z,9.00
2019-05-02T01:11:50.692Z,8.90
2019-05-02T01:16:57.874Z,8.80
2019-05-02T01:22:10.540Z,8.90
2019-05-02T01:27:26.252Z,8.90
2019-05-02T01:32:46.608Z,8.80
2019-05-02T01:38:10.668Z,8.80
2019-05-02T01:43:28.990Z,8.80
2019-05-02T01:48:40.165Z,8.80
2019-05-02T01:53:45.144Z,8.80
2019-05-02T01:58:53.026Z,8.70
2019-05-02T02:04:01.347Z,8.80
2019-05-02T02:09:09.876Z,8.80
2019-05-02T02:14:18.794Z,8.60
2019-05-02T02:19:34.634Z,8.50
2019-05-02T02:24:44.916Z,8.40
2019-05-02T02:29:52.005Z,8.30
2019-05-02T02:35:03.570Z,8.20
2019-05-02T02:40:08.017Z,8.20
2019-05-02T02:45:32.400Z,8.10
2019-05-02T02:50:43.189Z,8.10
2019-05-02T02:55:48.245Z,8.10
2019-05-02T03:00:55.318Z,8.10
2019-05-02T03:06:05.744Z,8.10
2019-05-02T03:11:22.371Z,8.10
2019-05-02T03:16:23.901Z,8.10
2019-05-02T03:21:31.254Z,8.10
2019-05-02T03:26:38.822Z,8.20
2019-05-02T03:31:46.736Z,8.10
2019-05-02T03:36:53.816Z,8.20
2019-05-02T03:42:02.990Z,8.20
2019-05-02T03:47:10.298Z,8.20
2019-05-02T03:52:17.605Z,8.30
2019-05-02T03:57:32.888Z,8.30
2019-05-02T04:02:34.728Z,8.30
2019-05-02T04:07:42.573Z,8.30
2019-05-02T04:12:53.255Z,8.30
2019-05-02T04:18:00.428Z,8.30
2019-05-02T04:23:09.742Z,8.30
2019-05-02T04:28:17.455Z,8.30
2019-05-02T04:33:29.083Z,8.20
2019-05-02T04:38:44.598Z,8.20
2019-05-02T04:43:54.554Z,8.20
2019-05-02T04:48:53.204Z,8.10
2019-05-02T04:54:00.572Z,8.10
2019-05-02T04:59:13.995Z,8.00
2019-05-02T05:04:17.832Z,7.90
2019-05-02T05:09:27.737Z,7.90
2019-05-02T05:14:39.228Z,7.90
2019-05-02T05:19:42.582Z,7.90
2019-05-02T05:24:59.011Z,7.90
2019-05-02T05:30:11.372Z,7.80
2019-05-02T05:35:17.523Z,7.80
2019-05-02T05:40:28.204Z,7.80
2019-05-02T05:45:33.049Z,7.80
2019-05-02T05:50:41.508Z,7.80
2019-05-02T05:55:48.663Z,7.80
2019-05-02T06:00:58.328Z,7.70
2019-05-02T06:06:04.783Z,7.70
2019-05-02T06:11:14.945Z,7.90
2019-05-02T06:16:21.237Z,7.90
2019-05-02T06:21:28.356Z,8.00
2019-05-02T06:26:36.258Z,8.10
2019-05-02T06:31:44.417Z,8.00
2019-05-02T06:36:51.768Z,8.00
2019-05-02T06:41:58.924Z,7.90
2019-05-02T06:47:06.198Z,7.80
2019-05-02T06:52:14.088Z,7.80
2019-05-02T06:57:24.085Z,7.80
2019-05-02T07:02:33.572Z,7.70
2019-05-02T07:07:40.246Z,7.80
2019-05-02T07:12:51.133Z,7.70
2019-05-02T07:17:58.932Z,7.70
2019-05-02T07:23:10.596Z,7.80
2019-05-02T07:28:15.133Z,7.80
2019-05-02T07:33:22.880Z,7.80
2019-05-02T07:38:29.976Z,7.90
2019-05-02T07:43:37.305Z,7.80
2019-05-02T07:48:48.976Z,7.80
2019-05-02T07:53:55.577Z,7.80
2019-05-02T07:59:02.168Z,7.80
2019-05-02T08:04:13.005Z,7.70
2019-05-02T08:09:20.926Z,7.70
2019-05-02T08:14:29.185Z,7.80
2019-05-02T08:19:41.834Z,7.70
2019-05-02T08:24:46.666Z,7.80
2019-05-02T08:29:53.945Z,7.90
2019-05-02T08:35:01.141Z,8.00
2019-05-02T08:40:10.602Z,8.20
2019-05-02T08:45:17.659Z,8.30
2019-05-02T08:50:27.190Z,8.50
2019-05-02T08:55:33.466Z,8.70
2019-05-02T09:00:40.566Z,8.70
2019-05-02T09:05:47.835Z,8.70
2019-05-02T09:10:56.076Z,8.60
2019-05-02T09:16:05.863Z,8.60
2019-05-02T09:21:12.571Z,8.80
2019-05-02T09:26:33.243Z,8.90
2019-05-02T09:31:29.015Z,9.00
2019-05-02T09:36:38.158Z,9.10
2019-05-02T09:41:45.031Z,9.10
2019-05-02T09:46:56.589Z,9.10
2019-05-02T09:52:03.211Z,9.10
2019-05-02T09:57:12.009Z,9.10
2019-05-02T10:02:18.861Z,9.00
2019-05-02T10:07:25.994Z,9.00
2019-05-02T10:12:33.076Z,9.00
2019-05-02T10:17:44.710Z,9.10
2019-05-02T10:22:52.827Z,9.10
2019-05-02T10:27:59.323Z,9.10
2019-05-02T10:33:06.776Z,9.30
2019-05-02T10:38:18.239Z,9.60
2019-05-02T10:43:22.903Z,9.60
2019-05-02T10:48:30.078Z,9.60
2019-05-02T10:53:37.601Z,9.50
2019-05-02T10:58:45.017Z,9.40
2019-05-02T11:03:52.719Z,9.50
2019-05-02T11:08:59.878Z,9.60
2019-05-02T11:14:26.149Z,9.50
2019-05-02T11:19:52.333Z,9.30
2019-05-02T11:25:01.851Z,9.20
2019-05-02T11:30:12.228Z,9.40
2019-05-02T11:35:19.522Z,9.80
2019-05-02T11:40:26.728Z,9.70
2019-05-02T11:45:33.915Z,9.70
2019-05-02T11:50:42.250Z,9.70
2019-05-02T11:55:49.543Z,9.60
2019-05-02T12:00:56.650Z,9.40
2019-05-02T12:06:06.620Z,9.60
2019-05-02T12:11:17.580Z,9.80
2019-05-02T12:16:23.082Z,10.10
2019-05-02T12:21:32.541Z,10.40
2019-05-02T12:26:41.787Z,10.80
2019-05-02T12:31:52.683Z,10.80
2019-05-02T12:36:57.577Z,10.50
2019-05-02T12:42:06.323Z,10.40
2019-05-02T12:47:13.568Z,11.20
2019-05-02T12:52:22.524Z,11.20
2019-05-02T12:57:29.761Z,10.90
2019-05-02T13:02:52.530Z,10.70
2019-05-02T13:07:59.885Z,10.80
2019-05-02T13:13:12.310Z,11.10
2019-05-02T13:18:18.712Z,11.60
2019-05-02T13:23:51.843Z,11.80
2019-05-02T13:28:59.152Z,11.40
2019-05-02T13:34:22.231Z,11.10
2019-05-02T13:39:38.745Z,10.80
2019-05-02T13:44:56.060Z,10.60
2019-05-02T13:50:04.104Z,10.80
2019-05-02T13:55:15.586Z,10.80
2019-05-02T14:00:34.016Z,10.90
2019-05-02T14:05:49.136Z,10.90
2019-05-02T14:10:58.210Z,11.10
2019-05-02T14:16:06.551Z,11.00
2019-05-02T14:21:14.106Z,10.80
2019-05-02T14:26:28.212Z,10.70
2019-05-02T14:31:32.230Z,10.60
2019-05-02T14:36:42.199Z,10.40
2019-05-02T14:41:49.909Z,10.00
2019-05-02T14:46:57.892Z,9.60
2019-05-02T14:52:07.153Z,9.70
2019-05-02T14:57:17.269Z,10.10
2019-05-02T15:02:49.136Z,10.20
2019-05-02T15:07:56.958Z,10.10
2019-05-02T15:13:04.598Z,10.20
2019-05-02T15:18:17.541Z,10.10
2019-05-02T15:23:24.099Z,10.00
2019-05-02T15:28:37.400Z,10.00
2019-05-02T15:33:56.289Z,9.90
2019-05-02T15:44:18.937Z,9.20
2019-05-02T15:49:23.672Z,9.00
2019-05-02T15:54:32.221Z,8.90
2019-05-02T15:59:43.977Z,8.80
2019-05-02T16:04:49.468Z,8.70
2019-05-02T16:10:01.099Z,8.60
2019-05-02T16:15:13.428Z,8.50
2019-05-02T16:20:24.050Z,8.40
2019-05-02T16:25:32.044Z,8.40
2019-05-02T16:30:44.663Z,8.30
2019-05-02T16:35:53.368Z,8.30
2019-05-02T16:41:04.075Z,8.20
2019-05-02T16:46:11.859Z,8.10
2019-05-02T16:51:30.001Z,8.10
2019-05-02T16:56:26.098Z,8.10
2019-05-02T17:01:33.251Z,8.10
2019-05-02T17:06:42.510Z,8.00
2019-05-02T17:11:49.366Z,8.00
2019-05-02T17:16:56.454Z,8.00
2019-05-02T17:22:03.524Z,7.90
2019-05-02T17:27:12.993Z,8.00
2019-05-02T17:32:22.356Z,8.10
2019-05-02T17:37:29.304Z,8.10
2019-05-02T17:42:36.415Z,8.00
2019-05-02T17:47:43.673Z,8.00
2019-05-02T17:52:56.202Z,8.00
2019-05-02T17:58:06.694Z,8.00
2019-05-02T18:03:12.149Z,7.90
2019-05-02T18:08:21.768Z,7.90
2019-05-02T18:13:33.305Z,7.90
2019-05-02T18:18:42.657Z,7.90
2019-05-02T18:23:46.499Z,7.80
2019-05-02T18:28:57.138Z,7.80
2019-05-02T18:34:03.481Z,7.80
2019-05-02T18:39:10.616Z,7.70
2019-05-02T18:44:18.930Z,7.60
2019-05-02T18:49:26.064Z,7.70
2019-05-02T18:54:33.837Z,7.60
2019-05-02T18:59:42.668Z,7.60
2019-05-02T19:04:51.547Z,7.60
2019-05-02T19:10:03.097Z,7.50
2019-05-02T19:15:07.956Z,7.50
2019-05-02T19:20:51.032Z,7.50
2019-05-02T19:25:50.261Z,7.40
2019-05-02T19:31:02.963Z,7.50
2019-05-02T19:36:06.581Z,7.40
2019-05-02T19:41:13.711Z,7.40
2019-05-02T19:46:26.415Z,7.40
2019-05-02T19:51:31.585Z,7.30
2019-05-02T19:56:45.361Z,7.30
2019-05-02T20:01:47.641Z,7.30
2019-05-02T20:06:54.733Z,7.30
2019-05-02T20:12:05.987Z,7.40
2019-05-02T20:17:15.051Z,7.30
2019-05-02T20:22:22.992Z,7.30
2019-05-02T20:27:30.093Z,7.30
2019-05-02T20:32:37.201Z,7.30
2019-05-02T20:37:44.305Z,7.30
2019-05-02T20:42:52.755Z,7.30
2019-05-02T20:48:02.195Z,7.30
2019-05-02T20:53:12.744Z,7.30
2019-05-02T20:58:21.958Z,7.30
2019-05-02T21:03:31.878Z,7.30
2019-05-02T21:09:03.683Z,7.30
2019-05-02T21:14:12.370Z,7.30
2019-05-02T21:19:21.627Z,7.30
2019-05-02T21:24:28.128Z,7.30
2019-05-02T21:29:35.272Z,7.30
2019-05-02T21:34:43.739Z,7.30
2019-05-02T21:39:52.076Z,7.30
2019-05-02T21:44:59.375Z,7.30
2019-05-02T21:50:21.643Z,7.30
2019-05-02T21:55:42.947Z,7.40
2019-05-02T22:01:07.156Z,7.30
2019-05-02T22:06:14.382Z,7.40
2019-05-02T22:11:22.571Z,7.40
2019-05-02T22:16:29.926Z,7.30
2019-05-02T22:21:37.024Z,7.30
2019-05-02T22:26:44.185Z,7.20
2019-05-02T22:31:54.178Z,7.20
2019-05-02T22:37:01.934Z,7.20
2019-05-02T22:42:09.481Z,7.20
2019-05-02T22:47:16.702Z,7.20
2019-05-02T22:52:23.855Z,7.20
2019-05-02T22:57:31.829Z,7.20
2019-05-02T23:02:38.982Z,7.20
2019-05-02T23:07:46.102Z,7.20
2019-05-02T23:12:53.420Z,7.10
2019-05-02T23:18:01.651Z,7.10
2019-05-02T23:23:08.833Z,7.10
2019-05-02T23:28:19.768Z,7.10
2019-05-02T23:33:46.028Z,7.10
2019-05-02T23:38:53.251Z,7.10
2019-05-02T23:44:02.665Z,7.10
2019-05-02T23:49:09.270Z,7.20
2019-05-02T23:54:16.471Z,7.10
2019-05-02T23:59:23.560Z,7.10
